sensor_id;sensor_type;location;lat;lon;timestamp;P1;durP1;ratioP1;P2;durP2;ratioP2
2338;SDS011;1180;51.438;6.978;2023-05-02T00:02:13;25.90;;;20.30;;
2338;SDS011;1180;51.438;6.978;2023-05-02T00:04:38;23.70;;;20.13;;
2338;SDS011;1180;51.438;6.978;2023-05-02T00:07:04;23.50;;;20.13;;
2338;SDS011;1180;51.438;6.978;2023-05-02T00:09:29;28.20;;;21.83;;
2338;SDS011;1180;51.438;6.978;2023-05-02T00:11:55;27.33;;;22.50;;
2338;SDS011;1180;51.438;6.978;2023-05-02T00:14:20;23.93;;;20.00;;
2338;SDS011;1180;51.438;6.978;2023-05-02T00:16:45;33.27;;;23.50;;
2338;SDS011;1180;51.438;6.978;2023-05-02T00:19:11;25.57;;;22.10;;
2338;SDS011;1180;51.438;6.978;2023-05-02T00:21:36;25.90;;;21.20;;
2338;SDS011;1180;51.438;6.978;2023-05-02T00:24:01;29.13;;;24.20;;
2338;SDS011;1180;51.438;6.978;2023-05-02T00:26:27;34.40;;;24.00;;
2338;SDS011;1180;51.438;6.978;2023-05-02T00:28:53;29.90;;;24.03;;
2338;SDS011;1180;51.438;6.978;2023-05-02T00:31:18;29.43;;;23.87;;
2338;SDS011;1180;51.438;6.978;2023-05-02T00:33:43;32.60;;;24.33;;
2338;SDS011;1180;51.438;6.978;2023-05-02T00:36:15;28.67;;;23.30;;
2338;SDS011;1180;51.438;6.978;2023-05-02T00:38:41;28.90;;;22.13;;
2338;SDS011;1180;51.438;6.978;2023-05-02T00:41:07;32.23;;;24.10;;
2338;SDS011;1180;51.438;6.978;2023-05-02T00:43:32;28.73;;;23.67;;
2338;SDS011;1180;51.438;6.978;2023-05-02T00:45:58;32.07;;;24.80;;
2338;SDS011;1180;51.438;6.978;2023-05-02T00:48:23;30.90;;;25.00;;
2338;SDS011;1180;51.438;6.978;2023-05-02T00:50:50;30.43;;;24.00;;
2338;SDS011;1180;51.438;6.978;2023-05-02T00:53:16;27.50;;;23.33;;
2338;SDS011;1180;51.438;6.978;2023-05-02T00:55:41;33.20;;;25.43;;
2338;SDS011;1180;51.438;6.978;2023-05-02T00:58:09;30.90;;;26.03;;
2338;SDS011;1180;51.438;6.978;2023-05-02T01:03:25;32.00;;;24.40;;
2338;SDS011;1180;51.438;6.978;2023-05-02T01:06:08;31.80;;;24.23;;
2338;SDS011;1180;51.438;6.978;2023-05-02T01:08:46;35.20;;;26.93;;
2338;SDS011;1180;51.438;6.978;2023-05-02T01:11:27;34.90;;;25.63;;
2338;SDS011;1180;51.438;6.978;2023-05-02T01:14:04;35.87;;;27.10;;
2338;SDS011;1180;51.438;6.978;2023-05-02T01:16:32;33.90;;;27.33;;
2338;SDS011;1180;51.438;6.978;2023-05-02T01:19:02;36.07;;;27.83;;
2338;SDS011;1180;51.438;6.978;2023-05-02T01:21:31;45.63;;;33.20;;
2338;SDS011;1180;51.438;6.978;2023-05-02T01:24:18;40.87;;;30.37;;
2338;SDS011;1180;51.438;6.978;2023-05-02T01:27:14;39.67;;;28.30;;
2338;SDS011;1180;51.438;6.978;2023-05-02T01:29:59;42.67;;;32.00;;
2338;SDS011;1180;51.438;6.978;2023-05-02T01:32:27;47.30;;;30.10;;
2338;SDS011;1180;51.438;6.978;2023-05-02T01:34:55;40.53;;;28.87;;
2338;SDS011;1180;51.438;6.978;2023-05-02T01:37:22;46.47;;;30.53;;
2338;SDS011;1180;51.438;6.978;2023-05-02T01:39:48;43.93;;;30.90;;
2338;SDS011;1180;51.438;6.978;2023-05-02T01:42:16;45.60;;;30.10;;
2338;SDS011;1180;51.438;6.978;2023-05-02T01:44:44;43.73;;;29.37;;
2338;SDS011;1180;51.438;6.978;2023-05-02T01:47:12;38.70;;;28.30;;
2338;SDS011;1180;51.438;6.978;2023-05-02T01:49:38;40.50;;;28.20;;
2338;SDS011;1180;51.438;6.978;2023-05-02T01:52:06;35.60;;;26.77;;
2338;SDS011;1180;51.438;6.978;2023-05-02T01:54:35;41.27;;;29.20;;
2338;SDS011;1180;51.438;6.978;2023-05-02T01:57:02;40.67;;;26.37;;
2338;SDS011;1180;51.438;6.978;2023-05-02T01:59:30;33.10;;;24.43;;
2338;SDS011;1180;51.438;6.978;2023-05-02T02:01:57;34.63;;;25.10;;
2338;SDS011;1180;51.438;6.978;2023-05-02T02:04:25;35.87;;;24.70;;
2338;SDS011;1180;51.438;6.978;2023-05-02T02:06:54;33.40;;;24.57;;
2338;SDS011;1180;51.438;6.978;2023-05-02T02:09:25;36.73;;;24.30;;
2338;SDS011;1180;51.438;6.978;2023-05-02T02:11:58;31.20;;;21.77;;
2338;SDS011;1180;51.438;6.978;2023-05-02T02:14:34;28.33;;;20.57;;
2338;SDS011;1180;51.438;6.978;2023-05-02T02:17:04;31.70;;;20.30;;
2338;SDS011;1180;51.438;6.978;2023-05-02T02:19:36;38.50;;;22.53;;
2338;SDS011;1180;51.438;6.978;2023-05-02T02:22:03;28.80;;;19.97;;
2338;SDS011;1180;51.438;6.978;2023-05-02T02:24:31;29.60;;;20.17;;
2338;SDS011;1180;51.438;6.978;2023-05-02T02:27:00;28.90;;;20.00;;
2338;SDS011;1180;51.438;6.978;2023-05-02T02:29:26;31.73;;;19.90;;
2338;SDS011;1180;51.438;6.978;2023-05-02T02:31:52;27.13;;;18.83;;
2338;SDS011;1180;51.438;6.978;2023-05-02T02:34:17;32.70;;;20.10;;
2338;SDS011;1180;51.438;6.978;2023-05-02T02:47:26;22.73;;;14.73;;
2338;SDS011;1180;51.438;6.978;2023-05-02T02:52:52;20.60;;;14.47;;
2338;SDS011;1180;51.438;6.978;2023-05-02T03:01:03;20.23;;;15.20;;
2338;SDS011;1180;51.438;6.978;2023-05-02T03:03:39;21.07;;;15.50;;
2338;SDS011;1180;51.438;6.978;2023-05-02T03:06:07;21.20;;;15.30;;
2338;SDS011;1180;51.438;6.978;2023-05-02T03:08:39;23.20;;;14.77;;
2338;SDS011;1180;51.438;6.978;2023-05-02T03:11:07;21.57;;;14.97;;
2338;SDS011;1180;51.438;6.978;2023-05-02T03:13:33;22.60;;;14.03;;
2338;SDS011;1180;51.438;6.978;2023-05-02T03:17:00;19.63;;;13.40;;
2338;SDS011;1180;51.438;6.978;2023-05-02T03:18:55;20.63;;;14.00;;
2338;SDS011;1180;51.438;6.978;2023-05-02T03:21:20;17.60;;;11.63;;
2338;SDS011;1180;51.438;6.978;2023-05-02T03:23:46;16.60;;;12.03;;
2338;SDS011;1180;51.438;6.978;2023-05-02T03:26:11;19.23;;;13.23;;
2338;SDS011;1180;51.438;6.978;2023-05-02T03:28:37;17.33;;;10.50;;
2338;SDS011;1180;51.438;6.978;2023-05-02T03:31:02;19.67;;;11.37;;
2338;SDS011;1180;51.438;6.978;2023-05-02T03:33:28;16.93;;;11.17;;
2338;SDS011;1180;51.438;6.978;2023-05-02T03:35:53;18.07;;;12.40;;
2338;SDS011;1180;51.438;6.978;2023-05-02T03:38:18;13.30;;;10.60;;
2338;SDS011;1180;51.438;6.978;2023-05-02T03:40:44;16.57;;;11.07;;
2338;SDS011;1180;51.438;6.978;2023-05-02T03:43:10;17.50;;;11.47;;
2338;SDS011;1180;51.438;6.978;2023-05-02T03:45:36;17.30;;;11.33;;
2338;SDS011;1180;51.438;6.978;2023-05-02T03:48:01;16.13;;;10.87;;
2338;SDS011;1180;51.438;6.978;2023-05-02T03:50:27;19.90;;;13.73;;
2338;SDS011;1180;51.438;6.978;2023-05-02T03:52:52;19.30;;;12.70;;
2338;SDS011;1180;51.438;6.978;2023-05-02T03:55:18;20.50;;;13.97;;
2338;SDS011;1180;51.438;6.978;2023-05-02T03:57:43;18.43;;;12.83;;
2338;SDS011;1180;51.438;6.978;2023-05-02T04:00:09;17.20;;;12.10;;
2338;SDS011;1180;51.438;6.978;2023-05-02T04:02:35;20.83;;;14.00;;
2338;SDS011;1180;51.438;6.978;2023-05-02T04:05:00;21.27;;;13.07;;
2338;SDS011;1180;51.438;6.978;2023-05-02T04:07:25;21.33;;;12.47;;
2338;SDS011;1180;51.438;6.978;2023-05-02T04:09:51;19.63;;;13.37;;
2338;SDS011;1180;51.438;6.978;2023-05-02T04:12:16;19.00;;;12.63;;
2338;SDS011;1180;51.438;6.978;2023-05-02T04:14:42;20.27;;;14.03;;
2338;SDS011;1180;51.438;6.978;2023-05-02T04:17:07;18.80;;;13.00;;
2338;SDS011;1180;51.438;6.978;2023-05-02T04:19:33;20.40;;;12.93;;
2338;SDS011;1180;51.438;6.978;2023-05-02T04:21:59;22.90;;;14.87;;
2338;SDS011;1180;51.438;6.978;2023-05-02T04:24:24;20.10;;;13.30;;
2338;SDS011;1180;51.438;6.978;2023-05-02T04:26:50;21.07;;;12.80;;
2338;SDS011;1180;51.438;6.978;2023-05-02T04:29:15;17.07;;;12.93;;
2338;SDS011;1180;51.438;6.978;2023-05-02T04:31:40;21.97;;;14.03;;
2338;SDS011;1180;51.438;6.978;2023-05-02T04:34:06;17.30;;;12.23;;
2338;SDS011;1180;51.438;6.978;2023-05-02T04:36:31;21.00;;;11.57;;
2338;SDS011;1180;51.438;6.978;2023-05-02T04:38:58;16.90;;;11.70;;
2338;SDS011;1180;51.438;6.978;2023-05-02T04:41:23;16.20;;;11.57;;
2338;SDS011;1180;51.438;6.978;2023-05-02T04:43:49;18.90;;;12.40;;
2338;SDS011;1180;51.438;6.978;2023-05-02T04:46:15;19.93;;;12.30;;
2338;SDS011;1180;51.438;6.978;2023-05-02T04:48:42;17.13;;;12.00;;
2338;SDS011;1180;51.438;6.978;2023-05-02T04:51:08;20.77;;;12.40;;
2338;SDS011;1180;51.438;6.978;2023-05-02T04:53:34;14.93;;;12.60;;
2338;SDS011;1180;51.438;6.978;2023-05-02T04:55:59;20.40;;;12.67;;
2338;SDS011;1180;51.438;6.978;2023-05-02T04:58:25;22.73;;;12.70;;
2338;SDS011;1180;51.438;6.978;2023-05-02T05:00:50;18.73;;;13.80;;
2338;SDS011;1180;51.438;6.978;2023-05-02T05:03:15;19.17;;;11.87;;
2338;SDS011;1180;51.438;6.978;2023-05-02T05:05:41;23.47;;;13.03;;
2338;SDS011;1180;51.438;6.978;2023-05-02T05:08:06;20.83;;;13.57;;
2338;SDS011;1180;51.438;6.978;2023-05-02T05:10:32;18.53;;;12.90;;
2338;SDS011;1180;51.438;6.978;2023-05-02T05:12:57;20.33;;;13.50;;
2338;SDS011;1180;51.438;6.978;2023-05-02T05:15:23;18.63;;;13.17;;
2338;SDS011;1180;51.438;6.978;2023-05-02T05:17:50;17.20;;;11.87;;
2338;SDS011;1180;51.438;6.978;2023-05-02T05:20:16;15.50;;;11.60;;
2338;SDS011;1180;51.438;6.978;2023-05-02T05:22:41;15.77;;;10.90;;
2338;SDS011;1180;51.438;6.978;2023-05-02T05:25:07;14.77;;;10.87;;
2338;SDS011;1180;51.438;6.978;2023-05-02T05:27:36;17.97;;;11.73;;
2338;SDS011;1180;51.438;6.978;2023-05-02T05:30:02;13.13;;;9.20;;
2338;SDS011;1180;51.438;6.978;2023-05-02T05:32:28;14.77;;;9.80;;
2338;SDS011;1180;51.438;6.978;2023-05-02T05:34:54;10.20;;;7.43;;
2338;SDS011;1180;51.438;6.978;2023-05-02T05:37:19;12.23;;;8.27;;
2338;SDS011;1180;51.438;6.978;2023-05-02T05:39:45;10.80;;;7.07;;
2338;SDS011;1180;51.438;6.978;2023-05-02T05:42:11;10.00;;;6.40;;
2338;SDS011;1180;51.438;6.978;2023-05-02T05:44:37;7.77;;;5.13;;
2338;SDS011;1180;51.438;6.978;2023-05-02T05:47:02;8.37;;;5.90;;
2338;SDS011;1180;51.438;6.978;2023-05-02T05:49:28;8.80;;;5.20;;
2338;SDS011;1180;51.438;6.978;2023-05-02T05:51:54;8.80;;;5.60;;
2338;SDS011;1180;51.438;6.978;2023-05-02T05:54:19;7.57;;;5.70;;
2338;SDS011;1180;51.438;6.978;2023-05-02T05:56:45;12.50;;;5.57;;
2338;SDS011;1180;51.438;6.978;2023-05-02T05:59:10;6.60;;;4.50;;
2338;SDS011;1180;51.438;6.978;2023-05-02T06:01:36;7.93;;;4.17;;
2338;SDS011;1180;51.438;6.978;2023-05-02T06:04:02;6.50;;;4.30;;
2338;SDS011;1180;51.438;6.978;2023-05-02T06:06:28;6.33;;;5.00;;
2338;SDS011;1180;51.438;6.978;2023-05-02T06:08:56;6.00;;;5.03;;
2338;SDS011;1180;51.438;6.978;2023-05-02T06:11:21;5.80;;;3.80;;
2338;SDS011;1180;51.438;6.978;2023-05-02T06:13:50;4.70;;;3.00;;
2338;SDS011;1180;51.438;6.978;2023-05-02T06:16:15;6.17;;;4.00;;
2338;SDS011;1180;51.438;6.978;2023-05-02T06:18:42;4.53;;;4.07;;
2338;SDS011;1180;51.438;6.978;2023-05-02T06:21:08;8.23;;;3.80;;
2338;SDS011;1180;51.438;6.978;2023-05-02T06:23:33;4.37;;;3.80;;
2338;SDS011;1180;51.438;6.978;2023-05-02T06:25:59;10.00;;;3.70;;
2338;SDS011;1180;51.438;6.978;2023-05-02T06:28:25;5.40;;;3.50;;
2338;SDS011;1180;51.438;6.978;2023-05-02T06:31:00;9.17;;;3.87;;
2338;SDS011;1180;51.438;6.978;2023-05-02T06:33:28;5.40;;;3.20;;
2338;SDS011;1180;51.438;6.978;2023-05-02T06:35:54;5.50;;;4.07;;
2338;SDS011;1180;51.438;6.978;2023-05-02T06:38:20;5.00;;;3.37;;
2338;SDS011;1180;51.438;6.978;2023-05-02T06:40:46;6.27;;;3.00;;
2338;SDS011;1180;51.438;6.978;2023-05-02T06:43:12;3.50;;;3.20;;
2338;SDS011;1180;51.438;6.978;2023-05-02T06:45:38;3.70;;;3.10;;
2338;SDS011;1180;51.438;6.978;2023-05-02T06:48:04;4.80;;;3.17;;
2338;SDS011;1180;51.438;6.978;2023-05-02T06:50:31;3.30;;;3.00;;
2338;SDS011;1180;51.438;6.978;2023-05-02T06:52:56;4.90;;;3.10;;
2338;SDS011;1180;51.438;6.978;2023-05-02T06:55:22;5.77;;;3.80;;
2338;SDS011;1180;51.438;6.978;2023-05-02T06:57:47;5.90;;;3.17;;
2338;SDS011;1180;51.438;6.978;2023-05-02T07:00:15;6.40;;;2.87;;
2338;SDS011;1180;51.438;6.978;2023-05-02T07:02:41;4.20;;;3.20;;
2338;SDS011;1180;51.438;6.978;2023-05-02T07:05:07;4.50;;;2.90;;
2338;SDS011;1180;51.438;6.978;2023-05-02T07:07:32;6.80;;;3.23;;
2338;SDS011;1180;51.438;6.978;2023-05-02T07:09:58;7.10;;;3.60;;
2338;SDS011;1180;51.438;6.978;2023-05-02T07:12:24;7.90;;;3.70;;
2338;SDS011;1180;51.438;6.978;2023-05-02T07:14:50;9.37;;;3.50;;
2338;SDS011;1180;51.438;6.978;2023-05-02T07:17:16;8.70;;;3.93;;
2338;SDS011;1180;51.438;6.978;2023-05-02T07:19:41;5.30;;;3.43;;
2338;SDS011;1180;51.438;6.978;2023-05-02T07:22:07;7.97;;;4.00;;
2338;SDS011;1180;51.438;6.978;2023-05-02T07:24:32;5.83;;;3.67;;
2338;SDS011;1180;51.438;6.978;2023-05-02T07:26:57;6.03;;;2.70;;
2338;SDS011;1180;51.438;6.978;2023-05-02T07:29:23;7.40;;;2.90;;
2338;SDS011;1180;51.438;6.978;2023-05-02T07:31:49;7.43;;;2.40;;
2338;SDS011;1180;51.438;6.978;2023-05-02T07:34:15;2.00;;;1.80;;
2338;SDS011;1180;51.438;6.978;2023-05-02T07:36:41;2.77;;;2.27;;
2338;SDS011;1180;51.438;6.978;2023-05-02T07:39:06;2.60;;;2.27;;
2338;SDS011;1180;51.438;6.978;2023-05-02T07:41:32;4.23;;;2.90;;
2338;SDS011;1180;51.438;6.978;2023-05-02T07:43:57;3.23;;;2.87;;
2338;SDS011;1180;51.438;6.978;2023-05-02T07:46:23;4.30;;;3.37;;
2338;SDS011;1180;51.438;6.978;2023-05-02T07:48:49;5.63;;;3.70;;
2338;SDS011;1180;51.438;6.978;2023-05-02T07:51:15;5.87;;;3.20;;
2338;SDS011;1180;51.438;6.978;2023-05-02T07:53:40;4.77;;;3.70;;
2338;SDS011;1180;51.438;6.978;2023-05-02T07:56:06;6.83;;;4.23;;
2338;SDS011;1180;51.438;6.978;2023-05-02T07:58:35;3.30;;;3.00;;
2338;SDS011;1180;51.438;6.978;2023-05-02T08:01:01;5.63;;;3.00;;
2338;SDS011;1180;51.438;6.978;2023-05-02T08:03:28;5.90;;;3.20;;
2338;SDS011;1180;51.438;6.978;2023-05-02T08:05:54;2.90;;;2.67;;
2338;SDS011;1180;51.438;6.978;2023-05-02T08:08:20;3.30;;;2.60;;
2338;SDS011;1180;51.438;6.978;2023-05-02T08:10:45;3.23;;;2.77;;
2338;SDS011;1180;51.438;6.978;2023-05-02T08:13:11;5.40;;;2.90;;
2338;SDS011;1180;51.438;6.978;2023-05-02T08:15:36;5.40;;;2.93;;
2338;SDS011;1180;51.438;6.978;2023-05-02T08:18:02;3.00;;;2.30;;
2338;SDS011;1180;51.438;6.978;2023-05-02T08:20:27;4.40;;;2.40;;
2338;SDS011;1180;51.438;6.978;2023-05-02T08:22:53;5.60;;;2.17;;
2338;SDS011;1180;51.438;6.978;2023-05-02T08:25:18;5.70;;;2.63;;
2338;SDS011;1180;51.438;6.978;2023-05-02T08:27:44;3.67;;;3.03;;
2338;SDS011;1180;51.438;6.978;2023-05-02T08:30:09;4.33;;;3.30;;
2338;SDS011;1180;51.438;6.978;2023-05-02T08:32:35;4.03;;;3.60;;
2338;SDS011;1180;51.438;6.978;2023-05-02T08:35:01;6.67;;;3.67;;
2338;SDS011;1180;51.438;6.978;2023-05-02T08:37:27;5.00;;;3.50;;
2338;SDS011;1180;51.438;6.978;2023-05-02T08:39:52;7.97;;;3.87;;
2338;SDS011;1180;51.438;6.978;2023-05-02T08:42:18;6.93;;;3.90;;
2338;SDS011;1180;51.438;6.978;2023-05-02T08:44:45;8.70;;;4.10;;
2338;SDS011;1180;51.438;6.978;2023-05-02T08:47:12;8.00;;;4.63;;
2338;SDS011;1180;51.438;6.978;2023-05-02T08:49:39;7.40;;;3.83;;
2338;SDS011;1180;51.438;6.978;2023-05-02T08:52:06;7.13;;;6.43;;
2338;SDS011;1180;51.438;6.978;2023-05-02T08:54:33;9.50;;;8.50;;
2338;SDS011;1180;51.438;6.978;2023-05-02T08:57:02;12.07;;;7.90;;
2338;SDS011;1180;51.438;6.978;2023-05-02T08:59:28;12.33;;;7.03;;
2338;SDS011;1180;51.438;6.978;2023-05-02T09:01:57;9.93;;;7.43;;
2338;SDS011;1180;51.438;6.978;2023-05-02T09:04:26;7.87;;;5.87;;
2338;SDS011;1180;51.438;6.978;2023-05-02T09:06:57;7.63;;;5.10;;
2338;SDS011;1180;51.438;6.978;2023-05-02T09:09:22;10.33;;;4.47;;
2338;SDS011;1180;51.438;6.978;2023-05-02T09:11:49;7.47;;;5.60;;
2338;SDS011;1180;51.438;6.978;2023-05-02T09:14:16;7.70;;;5.50;;
2338;SDS011;1180;51.438;6.978;2023-05-02T09:16:42;11.53;;;7.37;;
2338;SDS011;1180;51.438;6.978;2023-05-02T09:19:08;10.73;;;8.50;;
2338;SDS011;1180;51.438;6.978;2023-05-02T09:21:35;9.53;;;7.07;;
2338;SDS011;1180;51.438;6.978;2023-05-02T09:24:13;7.50;;;4.97;;
2338;SDS011;1180;51.438;6.978;2023-05-02T09:26:41;7.07;;;4.83;;
2338;SDS011;1180;51.438;6.978;2023-05-02T09:29:08;3.73;;;3.03;;
2338;SDS011;1180;51.438;6.978;2023-05-02T09:31:34;5.17;;;3.47;;
2338;SDS011;1180;51.438;6.978;2023-05-02T09:34:12;17.40;;;3.90;;
2338;SDS011;1180;51.438;6.978;2023-05-02T09:36:43;6.60;;;3.00;;
2338;SDS011;1180;51.438;6.978;2023-05-02T09:39:11;2.90;;;2.17;;
2338;SDS011;1180;51.438;6.978;2023-05-02T09:41:38;4.93;;;2.17;;
2338;SDS011;1180;51.438;6.978;2023-05-02T09:44:11;5.97;;;3.07;;
2338;SDS011;1180;51.438;6.978;2023-05-02T09:46:42;2.70;;;2.43;;
2338;SDS011;1180;51.438;6.978;2023-05-02T09:49:15;4.60;;;3.20;;
2338;SDS011;1180;51.438;6.978;2023-05-02T09:51:44;6.20;;;2.90;;
2338;SDS011;1180;51.438;6.978;2023-05-02T09:54:13;5.47;;;4.30;;
2338;SDS011;1180;51.438;6.978;2023-05-02T09:56:51;4.53;;;3.80;;
2338;SDS011;1180;51.438;6.978;2023-05-02T09:59:20;6.13;;;4.03;;
2338;SDS011;1180;51.438;6.978;2023-05-02T10:01:46;9.03;;;4.80;;
2338;SDS011;1180;51.438;6.978;2023-05-02T10:04:22;4.73;;;4.33;;
2338;SDS011;1180;51.438;6.978;2023-05-02T10:06:50;4.57;;;3.47;;
2338;SDS011;1180;51.438;6.978;2023-05-02T10:09:17;8.00;;;3.70;;
2338;SDS011;1180;51.438;6.978;2023-05-02T10:11:45;6.23;;;4.00;;
2338;SDS011;1180;51.438;6.978;2023-05-02T10:14:11;9.10;;;4.80;;
2338;SDS011;1180;51.438;6.978;2023-05-02T10:17:15;5.20;;;3.23;;
2338;SDS011;1180;51.438;6.978;2023-05-02T10:22:17;8.63;;;3.83;;
2338;SDS011;1180;51.438;6.978;2023-05-02T10:24:44;6.73;;;3.73;;
2338;SDS011;1180;51.438;6.978;2023-05-02T10:27:12;8.87;;;4.27;;
2338;SDS011;1180;51.438;6.978;2023-05-02T10:29:38;8.93;;;3.60;;
2338;SDS011;1180;51.438;6.978;2023-05-02T10:32:06;10.17;;;4.20;;
2338;SDS011;1180;51.438;6.978;2023-05-02T10:34:33;11.20;;;4.70;;
2338;SDS011;1180;51.438;6.978;2023-05-02T10:36:59;7.20;;;3.80;;
2338;SDS011;1180;51.438;6.978;2023-05-02T10:39:26;6.50;;;4.07;;
2338;SDS011;1180;51.438;6.978;2023-05-02T10:41:53;4.60;;;3.13;;
2338;SDS011;1180;51.438;6.978;2023-05-02T10:44:33;13.53;;;4.73;;
2338;SDS011;1180;51.438;6.978;2023-05-02T10:47:00;6.80;;;3.80;;
2338;SDS011;1180;51.438;6.978;2023-05-02T10:49:26;6.13;;;4.50;;
2338;SDS011;1180;51.438;6.978;2023-05-02T10:51:53;8.63;;;3.60;;
2338;SDS011;1180;51.438;6.978;2023-05-02T10:54:23;8.80;;;3.40;;
2338;SDS011;1180;51.438;6.978;2023-05-02T10:59:34;8.47;;;2.70;;
2338;SDS011;1180;51.438;6.978;2023-05-02T11:02:04;4.40;;;2.50;;
2338;SDS011;1180;51.438;6.978;2023-05-02T11:07:26;3.43;;;3.13;;
2338;SDS011;1180;51.438;6.978;2023-05-02T11:09:52;6.40;;;2.97;;
2338;SDS011;1180;51.438;6.978;2023-05-02T11:15:13;3.93;;;3.20;;
2338;SDS011;1180;51.438;6.978;2023-05-02T11:20:50;4.07;;;2.50;;
2338;SDS011;1180;51.438;6.978;2023-05-02T11:25:54;5.83;;;2.63;;
2338;SDS011;1180;51.438;6.978;2023-05-02T11:31:02;3.87;;;2.87;;
2338;SDS011;1180;51.438;6.978;2023-05-02T11:33:32;5.70;;;2.70;;
2338;SDS011;1180;51.438;6.978;2023-05-02T11:35:58;5.77;;;2.77;;
2338;SDS011;1180;51.438;6.978;2023-05-02T11:38:24;3.20;;;2.10;;
2338;SDS011;1180;51.438;6.978;2023-05-02T11:40:55;4.30;;;2.50;;
2338;SDS011;1180;51.438;6.978;2023-05-02T11:43:22;8.33;;;4.00;;
2338;SDS011;1180;51.438;6.978;2023-05-02T11:45:52;5.30;;;2.30;;
2338;SDS011;1180;51.438;6.978;2023-05-02T11:48:19;3.30;;;2.10;;
2338;SDS011;1180;51.438;6.978;2023-05-02T11:53:29;3.87;;;2.50;;
2338;SDS011;1180;51.438;6.978;2023-05-02T11:55:56;5.77;;;2.60;;
2338;SDS011;1180;51.438;6.978;2023-05-02T11:58:27;2.70;;;1.90;;
2338;SDS011;1180;51.438;6.978;2023-05-02T12:00:54;4.60;;;2.60;;
2338;SDS011;1180;51.438;6.978;2023-05-02T12:03:21;3.80;;;2.67;;
2338;SDS011;1180;51.438;6.978;2023-05-02T12:05:48;8.17;;;2.60;;
2338;SDS011;1180;51.438;6.978;2023-05-02T12:08:19;5.60;;;2.87;;
2338;SDS011;1180;51.438;6.978;2023-05-02T12:10:46;8.07;;;2.43;;
2338;SDS011;1180;51.438;6.978;2023-05-02T12:13:11;6.77;;;2.70;;
2338;SDS011;1180;51.438;6.978;2023-05-02T12:15:37;5.73;;;2.23;;
2338;SDS011;1180;51.438;6.978;2023-05-02T12:18:03;3.10;;;2.30;;
2338;SDS011;1180;51.438;6.978;2023-05-02T12:20:29;4.47;;;2.47;;
2338;SDS011;1180;51.438;6.978;2023-05-02T12:22:54;6.43;;;2.70;;
2338;SDS011;1180;51.438;6.978;2023-05-02T12:25:20;3.83;;;2.73;;
2338;SDS011;1180;51.438;6.978;2023-05-02T12:28:01;5.20;;;2.07;;
2338;SDS011;1180;51.438;6.978;2023-05-02T12:30:28;8.30;;;3.17;;
2338;SDS011;1180;51.438;6.978;2023-05-02T12:33:03;5.67;;;3.00;;
2338;SDS011;1180;51.438;6.978;2023-05-02T12:35:30;4.80;;;2.60;;
2338;SDS011;1180;51.438;6.978;2023-05-02T12:38:07;5.53;;;2.30;;
2338;SDS011;1180;51.438;6.978;2023-05-02T12:40:50;5.23;;;2.50;;
2338;SDS011;1180;51.438;6.978;2023-05-02T12:43:22;4.37;;;2.13;;
2338;SDS011;1180;51.438;6.978;2023-05-02T12:45:48;4.70;;;2.17;;
2338;SDS011;1180;51.438;6.978;2023-05-02T12:50:44;6.20;;;2.93;;
2338;SDS011;1180;51.438;6.978;2023-05-02T12:53:10;9.43;;;2.87;;
2338;SDS011;1180;51.438;6.978;2023-05-02T12:55:35;9.07;;;2.83;;
2338;SDS011;1180;51.438;6.978;2023-05-02T12:58:02;6.43;;;2.53;;
2338;SDS011;1180;51.438;6.978;2023-05-02T13:00:33;3.97;;;2.13;;
2338;SDS011;1180;51.438;6.978;2023-05-02T13:03:02;8.93;;;2.83;;
2338;SDS011;1180;51.438;6.978;2023-05-02T13:05:28;2.70;;;2.03;;
2338;SDS011;1180;51.438;6.978;2023-05-02T13:07:53;3.23;;;2.60;;
2338;SDS011;1180;51.438;6.978;2023-05-02T13:10:23;5.20;;;2.83;;
2338;SDS011;1180;51.438;6.978;2023-05-02T13:12:50;4.30;;;2.87;;
2338;SDS011;1180;51.438;6.978;2023-05-02T13:15:16;7.17;;;3.47;;
2338;SDS011;1180;51.438;6.978;2023-05-02T13:17:41;9.00;;;3.43;;
2338;SDS011;1180;51.438;6.978;2023-05-02T13:20:07;4.43;;;2.47;;
2338;SDS011;1180;51.438;6.978;2023-05-02T13:22:33;4.60;;;2.50;;
2338;SDS011;1180;51.438;6.978;2023-05-02T13:25:01;4.13;;;2.27;;
2338;SDS011;1180;51.438;6.978;2023-05-02T13:27:27;6.10;;;3.00;;
2338;SDS011;1180;51.438;6.978;2023-05-02T13:29:52;4.33;;;2.70;;
2338;SDS011;1180;51.438;6.978;2023-05-02T13:32:18;3.63;;;2.20;;
2338;SDS011;1180;51.438;6.978;2023-05-02T13:34:43;4.83;;;3.10;;
2338;SDS011;1180;51.438;6.978;2023-05-02T13:37:09;4.70;;;2.97;;
2338;SDS011;1180;51.438;6.978;2023-05-02T13:39:35;7.27;;;2.97;;
2338;SDS011;1180;51.438;6.978;2023-05-02T13:42:00;3.57;;;3.27;;
2338;SDS011;1180;51.438;6.978;2023-05-02T13:44:29;4.00;;;2.93;;
2338;SDS011;1180;51.438;6.978;2023-05-02T13:46:54;4.50;;;2.70;;
2338;SDS011;1180;51.438;6.978;2023-05-02T13:49:20;7.03;;;3.40;;
2338;SDS011;1180;51.438;6.978;2023-05-02T13:51:46;6.87;;;3.03;;
2338;SDS011;1180;51.438;6.978;2023-05-02T13:54:12;4.10;;;3.20;;
2338;SDS011;1180;51.438;6.978;2023-05-02T13:56:37;3.87;;;3.00;;
2338;SDS011;1180;51.438;6.978;2023-05-02T13:59:04;5.53;;;2.93;;
2338;SDS011;1180;51.438;6.978;2023-05-02T14:01:30;5.50;;;3.63;;
2338;SDS011;1180;51.438;6.978;2023-05-02T14:03:56;6.60;;;3.90;;
2338;SDS011;1180;51.438;6.978;2023-05-02T14:06:21;8.60;;;3.83;;
2338;SDS011;1180;51.438;6.978;2023-05-02T14:08:47;3.37;;;2.97;;
2338;SDS011;1180;51.438;6.978;2023-05-02T14:11:12;3.13;;;2.93;;
2338;SDS011;1180;51.438;6.978;2023-05-02T14:13:38;5.43;;;2.97;;
2338;SDS011;1180;51.438;6.978;2023-05-02T14:16:03;5.03;;;3.20;;
2338;SDS011;1180;51.438;6.978;2023-05-02T14:18:30;5.33;;;3.50;;
2338;SDS011;1180;51.438;6.978;2023-05-02T14:20:55;4.70;;;3.03;;
2338;SDS011;1180;51.438;6.978;2023-05-02T14:23:24;6.63;;;4.20;;
2338;SDS011;1180;51.438;6.978;2023-05-02T14:25:53;4.43;;;2.73;;
2338;SDS011;1180;51.438;6.978;2023-05-02T14:28:19;6.20;;;2.63;;
2338;SDS011;1180;51.438;6.978;2023-05-02T14:30:46;5.20;;;3.00;;
2338;SDS011;1180;51.438;6.978;2023-05-02T14:33:13;3.57;;;2.70;;
2338;SDS011;1180;51.438;6.978;2023-05-02T14:35:38;5.60;;;3.10;;
2338;SDS011;1180;51.438;6.978;2023-05-02T14:38:04;6.73;;;2.93;;
2338;SDS011;1180;51.438;6.978;2023-05-02T14:40:31;5.60;;;3.60;;
2338;SDS011;1180;51.438;6.978;2023-05-02T14:42:57;7.40;;;3.77;;
2338;SDS011;1180;51.438;6.978;2023-05-02T14:45:23;7.17;;;3.80;;
2338;SDS011;1180;51.438;6.978;2023-05-02T14:47:48;5.43;;;3.47;;
2338;SDS011;1180;51.438;6.978;2023-05-02T14:50:14;4.87;;;3.60;;
2338;SDS011;1180;51.438;6.978;2023-05-02T14:52:41;6.73;;;3.60;;
2338;SDS011;1180;51.438;6.978;2023-05-02T14:55:07;5.20;;;3.30;;
2338;SDS011;1180;51.438;6.978;2023-05-02T14:57:33;5.00;;;2.73;;
2338;SDS011;1180;51.438;6.978;2023-05-02T14:59:58;5.60;;;3.53;;
2338;SDS011;1180;51.438;6.978;2023-05-02T15:02:24;5.30;;;4.43;;
2338;SDS011;1180;51.438;6.978;2023-05-02T15:04:50;12.67;;;4.33;;
2338;SDS011;1180;51.438;6.978;2023-05-02T15:07:16;3.10;;;2.83;;
2338;SDS011;1180;51.438;6.978;2023-05-02T15:09:42;7.00;;;3.40;;
2338;SDS011;1180;51.438;6.978;2023-05-02T15:12:08;4.27;;;3.70;;
2338;SDS011;1180;51.438;6.978;2023-05-02T15:14:33;6.30;;;3.07;;
2338;SDS011;1180;51.438;6.978;2023-05-02T15:16:59;6.47;;;4.13;;
2338;SDS011;1180;51.438;6.978;2023-05-02T15:19:25;8.80;;;3.70;;
2338;SDS011;1180;51.438;6.978;2023-05-02T15:21:50;6.63;;;4.00;;
2338;SDS011;1180;51.438;6.978;2023-05-02T15:24:21;11.80;;;4.40;;
2338;SDS011;1180;51.438;6.978;2023-05-02T15:26:48;4.67;;;3.40;;
2338;SDS011;1180;51.438;6.978;2023-05-02T15:29:14;5.47;;;3.47;;
2338;SDS011;1180;51.438;6.978;2023-05-02T15:31:40;7.00;;;3.73;;
2338;SDS011;1180;51.438;6.978;2023-05-02T15:34:05;8.43;;;4.20;;
2338;SDS011;1180;51.438;6.978;2023-05-02T15:36:31;7.83;;;4.03;;
2338;SDS011;1180;51.438;6.978;2023-05-02T15:39:01;5.90;;;4.00;;
2338;SDS011;1180;51.438;6.978;2023-05-02T15:41:29;8.20;;;4.23;;
2338;SDS011;1180;51.438;6.978;2023-05-02T15:43:58;8.13;;;4.33;;
2338;SDS011;1180;51.438;6.978;2023-05-02T15:46:24;8.00;;;4.90;;
2338;SDS011;1180;51.438;6.978;2023-05-02T15:48:50;5.87;;;4.57;;
2338;SDS011;1180;51.438;6.978;2023-05-02T15:51:19;7.03;;;3.83;;
2338;SDS011;1180;51.438;6.978;2023-05-02T15:53:44;10.63;;;4.47;;